sensor_id;sensor_type;location;lat;lon;timestamp;pressure;altitude;pressure_sealevel;temperature;humidity
57600;BME280;43426;43.594;24.334;2023-02-28T00:00:22;102045.03;;;6.40;100.00
57600;BME280;43426;43.594;24.334;2023-02-28T00:02:48;102054.88;;;6.52;100.00
57600;BME280;43426;43.594;24.334;2023-02-28T00:05:15;102053.28;;;6.37;100.00
57600;BME280;43426;43.594;24.334;2023-02-28T00:07:41;102060.25;;;6.39;100.00
57600;BME280;43426;43.594;24.334;2023-02-28T00:10:07;102062.91;;;6.52;100.00
57600;BME280;43426;43.594;24.334;2023-02-28T00:12:34;102068.06;;;6.55;100.00
57600;BME280;43426;43.594;24.334;2023-02-28T00:14:59;102066.69;;;6.50;100.00
57600;BME280;43426;43.594;24.334;2023-02-28T00:17:25;102081.59;;;6.41;100.00
57600;BME280;43426;43.594;24.334;2023-02-28T00:19:50;102081.28;;;6.45;100.00
57600;BME280;43426;43.594;24.334;2023-02-28T00:22:16;102082.66;;;6.51;100.00
57600;BME280;43426;43.594;24.334;2023-02-28T00:24:43;102090.69;;;6.38;100.00
57600;BME280;43426;43.594;24.334;2023-02-28T00:27:08;102091.81;;;6.36;100.00
57600;BME280;43426;43.594;24.334;2023-02-28T00:29:34;102084.50;;;6.38;100.00
57600;BME280;43426;43.594;24.334;2023-02-28T00:32:00;102087.50;;;6.33;100.00
57600;BME280;43426;43.594;24.334;2023-02-28T00:34:25;102089.94;;;6.49;100.00
57600;BME280;43426;43.594;24.334;2023-02-28T00:36:51;102093.69;;;6.46;100.00
57600;BME280;43426;43.594;24.334;2023-02-28T00:39:16;102094.09;;;6.53;100.00
57600;BME280;43426;43.594;24.334;2023-02-28T00:41:41;102092.00;;;6.33;100.00
57600;BME280;43426;43.594;24.334;2023-02-28T00:44:07;102097.69;;;6.28;100.00
57600;BME280;43426;43.594;24.334;2023-02-28T00:46:32;102104.56;;;6.32;100.00
57600;BME280;43426;43.594;24.334;2023-02-28T00:48:57;102109.81;;;6.34;100.00
57600;BME280;43426;43.594;24.334;2023-02-28T00:51:23;102109.91;;;6.32;100.00
57600;BME280;43426;43.594;24.334;2023-02-28T00:53:48;102111.00;;;6.29;100.00
57600;BME280;43426;43.594;24.334;2023-02-28T00:56:13;102108.09;;;6.33;100.00
57600;BME280;43426;43.594;24.334;2023-02-28T00:58:39;102108.97;;;6.33;100.00
57600;BME280;43426;43.594;24.334;2023-02-28T01:01:04;102099.66;;;6.26;100.00
57600;BME280;43426;43.594;24.334;2023-02-28T01:03:29;102100.19;;;6.18;100.00
57600;BME280;43426;43.594;24.334;2023-02-28T01:05:54;102098.38;;;6.06;100.00
57600;BME280;43426;43.594;24.334;2023-02-28T01:08:20;102090.41;;;6.17;100.00
57600;BME280;43426;43.594;24.334;2023-02-28T01:10:45;102085.94;;;6.05;100.00
57600;BME280;43426;43.594;24.334;2023-02-28T01:13:11;102085.41;;;6.00;100.00
57600;BME280;43426;43.594;24.334;2023-02-28T01:15:37;102084.31;;;6.15;100.00
57600;BME280;43426;43.594;24.334;2023-02-28T01:18:03;102085.72;;;6.08;100.00
57600;BME280;43426;43.594;24.334;2023-02-28T01:20:28;102084.44;;;6.01;100.00
57600;BME280;43426;43.594;24.334;2023-02-28T01:22:53;102089.88;;;5.86;100.00
57600;BME280;43426;43.594;24.334;2023-02-28T01:25:18;102088.16;;;5.85;100.00
57600;BME280;43426;43.594;24.334;2023-02-28T01:27:44;102088.25;;;5.71;100.00
57600;BME280;43426;43.594;24.334;2023-02-28T01:30:09;102089.88;;;5.73;100.00
57600;BME280;43426;43.594;24.334;2023-02-28T01:32:35;102092.13;;;5.67;100.00
57600;BME280;43426;43.594;24.334;2023-02-28T01:35:00;102097.81;;;5.75;100.00
57600;BME280;43426;43.594;24.334;2023-02-28T01:37:28;102101.75;;;5.82;100.00
57600;BME280;43426;43.594;24.334;2023-02-28T01:39:53;102093.41;;;5.61;100.00
57600;BME280;43426;43.594;24.334;2023-02-28T01:42:19;102095.41;;;5.57;100.00
57600;BME280;43426;43.594;24.334;2023-02-28T01:47:46;102101.72;;;5.43;100.00
57600;BME280;43426;43.594;24.334;2023-02-28T01:50:12;102093.00;;;5.40;100.00
57600;BME280;43426;43.594;24.334;2023-02-28T01:52:39;102085.88;;;5.13;100.00
57600;BME280;43426;43.594;24.334;2023-02-28T01:55:05;102072.94;;;5.07;100.00
57600;BME280;43426;43.594;24.334;2023-02-28T01:57:32;102068.88;;;5.14;100.00
57600;BME280;43426;43.594;24.334;2023-02-28T02:00:12;102060.06;;;4.99;100.00
57600;BME280;43426;43.594;24.334;2023-02-28T02:02:39;102058.63;;;4.81;100.00
57600;BME280;43426;43.594;24.334;2023-02-28T02:05:08;102067.38;;;4.83;100.00
57600;BME280;43426;43.594;24.334;2023-02-28T02:07:35;102073.84;;;4.66;100.00
57600;BME280;43426;43.594;24.334;2023-02-28T02:15:06;102077.25;;;4.68;100.00
57600;BME280;43426;43.594;24.334;2023-02-28T02:45:09;102076.66;;;4.35;100.00
57600;BME280;43426;43.594;24.334;2023-02-28T02:47:36;102081.03;;;4.51;100.00
57600;BME280;43426;43.594;24.334;2023-02-28T02:50:04;102077.59;;;4.34;100.00
57600;BME280;43426;43.594;24.334;2023-02-28T02:52:33;102078.81;;;4.43;100.00
57600;BME280;43426;43.594;24.334;2023-02-28T02:54:59;102079.44;;;4.34;100.00
57600;BME280;43426;43.594;24.334;2023-02-28T02:57:27;102089.53;;;4.29;100.00
57600;BME280;43426;43.594;24.334;2023-02-28T02:59:54;102082.09;;;4.19;100.00
57600;BME280;43426;43.594;24.334;2023-02-28T03:02:21;102097.19;;;4.35;100.00
57600;BME280;43426;43.594;24.334;2023-02-28T03:04:48;102098.50;;;4.28;100.00
57600;BME280;43426;43.594;24.334;2023-02-28T03:07:15;102102.91;;;4.14;100.00
57600;BME280;43426;43.594;24.334;2023-02-28T03:09:53;102105.50;;;4.16;100.00
57600;BME280;43426;43.594;24.334;2023-02-28T03:12:19;102103.09;;;4.11;100.00
57600;BME280;43426;43.594;24.334;2023-02-28T03:33:38;102133.59;;;3.92;100.00
57600;BME280;43426;43.594;24.334;2023-02-28T03:36:07;102128.72;;;3.85;100.00
57600;BME280;43426;43.594;24.334;2023-02-28T03:38:42;102132.81;;;3.76;100.00
57600;BME280;43426;43.594;24.334;2023-02-28T03:41:18;102143.38;;;3.63;100.00
57600;BME280;43426;43.594;24.334;2023-02-28T03:43:46;102156.75;;;3.78;100.00
57600;BME280;43426;43.594;24.334;2023-02-28T03:46:14;102158.56;;;3.77;100.00
57600;BME280;43426;43.594;24.334;2023-02-28T03:48:45;102161.22;;;3.77;100.00
57600;BME280;43426;43.594;24.334;2023-02-28T03:51:17;102159.16;;;3.82;100.00
57600;BME280;43426;43.594;24.334;2023-02-28T03:53:50;102164.75;;;3.78;100.00
57600;BME280;43426;43.594;24.334;2023-02-28T03:56:24;102166.25;;;3.67;100.00
57600;BME280;43426;43.594;24.334;2023-02-28T03:59:02;102158.56;;;3.77;100.00
57600;BME280;43426;43.594;24.334;2023-02-28T04:01:45;102170.16;;;3.62;100.00
57600;BME280;43426;43.594;24.334;2023-02-28T04:04:12;102178.47;;;3.71;100.00
57600;BME280;43426;43.594;24.334;2023-02-28T04:06:39;102176.66;;;3.72;100.00
57600;BME280;43426;43.594;24.334;2023-02-28T04:09:05;102167.91;;;3.84;100.00
57600;BME280;43426;43.594;24.334;2023-02-28T04:11:36;102161.53;;;3.72;100.00
57600;BME280;43426;43.594;24.334;2023-02-28T04:14:02;102164.00;;;3.75;100.00
57600;BME280;43426;43.594;24.334;2023-02-28T04:16:28;102166.38;;;3.80;100.00
57600;BME280;43426;43.594;24.334;2023-02-28T04:18:54;102173.44;;;3.81;100.00
57600;BME280;43426;43.594;24.334;2023-02-28T04:21:50;102160.22;;;3.94;100.00
57600;BME280;43426;43.594;24.334;2023-02-28T04:24:17;102167.22;;;3.81;100.00
57600;BME280;43426;43.594;24.334;2023-02-28T04:26:47;102164.97;;;3.89;100.00
57600;BME280;43426;43.594;24.334;2023-02-28T04:29:14;102166.34;;;3.96;100.00
57600;BME280;43426;43.594;24.334;2023-02-28T04:31:39;102177.47;;;3.88;100.00
57600;BME280;43426;43.594;24.334;2023-02-28T04:34:05;102176.44;;;3.91;100.00
57600;BME280;43426;43.594;24.334;2023-02-28T04:36:31;102164.97;;;3.89;100.00
57600;BME280;43426;43.594;24.334;2023-02-28T04:38:56;102166.84;;;3.72;100.00
57600;BME280;43426;43.594;24.334;2023-02-28T04:41:22;102171.22;;;3.73;100.00
57600;BME280;43426;43.594;24.334;2023-02-28T04:43:47;102167.41;;;3.78;100.00
57600;BME280;43426;43.594;24.334;2023-02-28T04:46:13;102174.38;;;3.80;100.00
57600;BME280;43426;43.594;24.334;2023-02-28T04:48:39;102180.19;;;3.72;100.00
57600;BME280;43426;43.594;24.334;2023-02-28T04:51:05;102181.91;;;3.73;100.00
57600;BME280;43426;43.594;24.334;2023-02-28T04:53:31;102177.25;;;3.77;100.00
57600;BME280;43426;43.594;24.334;2023-02-28T04:55:56;102181.06;;;3.87;100.00
57600;BME280;43426;43.594;24.334;2023-02-28T04:58:22;102175.09;;;3.98;100.00
57600;BME280;43426;43.594;24.334;2023-02-28T05:00:53;102183.59;;;3.90;100.00
57600;BME280;43426;43.594;24.334;2023-02-28T05:03:19;102185.13;;;3.95;100.00
57600;BME280;43426;43.594;24.334;2023-02-28T05:05:45;102195.81;;;3.95;100.00
57600;BME280;43426;43.594;24.334;2023-02-28T05:08:11;102191.50;;;3.92;100.00
57600;BME280;43426;43.594;24.334;2023-02-28T05:10:36;102196.84;;;3.92;100.00
57600;BME280;43426;43.594;24.334;2023-02-28T05:13:01;102201.63;;;4.01;100.00
57600;BME280;43426;43.594;24.334;2023-02-28T05:15:27;102203.25;;;4.04;100.00
57600;BME280;43426;43.594;24.334;2023-02-28T05:17:52;102209.91;;;3.97;100.00
57600;BME280;43426;43.594;24.334;2023-02-28T05:20:17;102213.72;;;3.92;100.00
57600;BME280;43426;43.594;24.334;2023-02-28T05:22:43;102219.59;;;3.83;100.00
57600;BME280;43426;43.594;24.334;2023-02-28T05:25:12;102220.25;;;3.72;100.00
57600;BME280;43426;43.594;24.334;2023-02-28T05:27:38;102225.25;;;3.93;100.00
57600;BME280;43426;43.594;24.334;2023-02-28T05:30:04;102233.72;;;3.85;100.00
57600;BME280;43426;43.594;24.334;2023-02-28T05:32:31;102233.94;;;3.97;100.00
57600;BME280;43426;43.594;24.334;2023-02-28T05:34:56;102239.41;;;3.79;100.00
57600;BME280;43426;43.594;24.334;2023-02-28T05:37:21;102233.97;;;3.81;100.00
57600;BME280;43426;43.594;24.334;2023-02-28T05:39:47;102245.44;;;3.83;100.00
57600;BME280;43426;43.594;24.334;2023-02-28T05:42:13;102253.88;;;3.91;100.00
57600;BME280;43426;43.594;24.334;2023-02-28T05:44:38;102248.63;;;3.89;100.00
57600;BME280;43426;43.594;24.334;2023-02-28T05:47:03;102261.97;;;3.89;100.00
57600;BME280;43426;43.594;24.334;2023-02-28T05:49:29;102254.84;;;3.74;100.00
57600;BME280;43426;43.594;24.334;2023-02-28T05:51:54;102244.94;;;3.76;100.00
57600;BME280;43426;43.594;24.334;2023-02-28T05:54:19;102261.56;;;3.81;100.00
57600;BME280;43426;43.594;24.334;2023-02-28T05:56:44;102261.03;;;3.74;100.00
57600;BME280;43426;43.594;24.334;2023-02-28T05:59:11;102258.88;;;3.81;100.00
57600;BME280;43426;43.594;24.334;2023-02-28T06:01:37;102261.22;;;3.71;100.00
57600;BME280;43426;43.594;24.334;2023-02-28T06:04:04;102260.00;;;3.77;100.00
57600;BME280;43426;43.594;24.334;2023-02-28T06:06:29;102260.72;;;3.65;100.00
57600;BME280;43426;43.594;24.334;2023-02-28T06:08:55;102258.06;;;3.65;100.00
57600;BME280;43426;43.594;24.334;2023-02-28T06:11:21;102263.91;;;3.55;100.00
57600;BME280;43426;43.594;24.334;2023-02-28T06:13:46;102257.53;;;3.74;100.00
57600;BME280;43426;43.594;24.334;2023-02-28T06:16:12;102261.81;;;3.77;100.00
57600;BME280;43426;43.594;24.334;2023-02-28T06:18:37;102264.03;;;3.84;100.00
57600;BME280;43426;43.594;24.334;2023-02-28T06:21:03;102260.69;;;3.81;100.00
57600;BME280;43426;43.594;24.334;2023-02-28T06:23:28;102257.53;;;3.74;100.00
57600;BME280;43426;43.594;24.334;2023-02-28T06:25:53;102264.94;;;3.69;100.00
57600;BME280;43426;43.594;24.334;2023-02-28T06:28:22;102266.66;;;3.70;100.00
57600;BME280;43426;43.594;24.334;2023-02-28T06:30:47;102268.03;;;3.77;100.00
57600;BME280;43426;43.594;24.334;2023-02-28T06:33:13;102272.09;;;3.68;100.00
57600;BME280;43426;43.594;24.334;2023-02-28T06:35:38;102274.81;;;3.67;100.00
57600;BME280;43426;43.594;24.334;2023-02-28T06:38:03;102262.59;;;3.63;100.00
57600;BME280;43426;43.594;24.334;2023-02-28T06:40:29;102263.06;;;3.55;100.00
57600;BME280;43426;43.594;24.334;2023-02-28T06:42:56;102271.81;;;3.73;100.00
57600;BME280;43426;43.594;24.334;2023-02-28T06:45:22;102277.81;;;3.77;100.00
57600;BME280;43426;43.594;24.334;2023-02-28T06:47:47;102273.69;;;3.71;100.00
57600;BME280;43426;43.594;24.334;2023-02-28T06:50:17;102272.75;;;3.72;100.00
57600;BME280;43426;43.594;24.334;2023-02-28T06:52:45;102269.75;;;3.62;100.00
57600;BME280;43426;43.594;24.334;2023-02-28T06:55:10;102273.38;;;3.77;100.00
57600;BME280;43426;43.594;24.334;2023-02-28T06:57:36;102269.00;;;3.60;100.00
57600;BME280;43426;43.594;24.334;2023-02-28T07:00:03;102274.50;;;3.73;100.00
57600;BME280;43426;43.594;24.334;2023-02-28T07:02:29;102282.84;;;3.67;100.00
57600;BME280;43426;43.594;24.334;2023-02-28T07:04:54;102282.03;;;3.81;100.00
57600;BME280;43426;43.594;24.334;2023-02-28T07:07:20;102283.84;;;3.80;100.00
57600;BME280;43426;43.594;24.334;2023-02-28T07:09:45;102286.44;;;3.82;100.00
57600;BME280;43426;43.594;24.334;2023-02-28T07:12:10;102295.13;;;3.85;100.00
57600;BME280;43426;43.594;24.334;2023-02-28T07:14:36;102292.06;;;3.77;100.00
57600;BME280;43426;43.594;24.334;2023-02-28T07:17:02;102287.38;;;3.81;100.00
57600;BME280;43426;43.594;24.334;2023-02-28T07:19:27;102296.81;;;4.02;100.00
57600;BME280;43426;43.594;24.334;2023-02-28T07:21:53;102304.69;;;3.89;100.00
57600;BME280;43426;43.594;24.334;2023-02-28T07:24:18;102303.91;;;3.87;100.00
57600;BME280;43426;43.594;24.334;2023-02-28T07:26:43;102296.94;;;3.85;100.00
57600;BME280;43426;43.594;24.334;2023-02-28T07:29:08;102291.53;;;3.86;100.00
57600;BME280;43426;43.594;24.334;2023-02-28T07:31:34;102282.06;;;3.65;100.00
57600;BME280;43426;43.594;24.334;2023-02-28T07:33:59;102278.78;;;3.75;100.00
57600;BME280;43426;43.594;24.334;2023-02-28T07:36:24;102280.06;;;3.84;100.00
57600;BME280;43426;43.594;24.334;2023-02-28T07:38:50;102278.94;;;3.88;100.00
57600;BME280;43426;43.594;24.334;2023-02-28T07:41:16;102285.22;;;3.87;100.00
57600;BME280;43426;43.594;24.334;2023-02-28T07:43:41;102289.47;;;3.75;100.00
57600;BME280;43426;43.594;24.334;2023-02-28T07:46:08;102292.38;;;3.87;100.00
57600;BME280;43426;43.594;24.334;2023-02-28T07:48:34;102292.19;;;3.90;100.00
57600;BME280;43426;43.594;24.334;2023-02-28T07:50:59;102291.88;;;3.80;100.00
57600;BME280;43426;43.594;24.334;2023-02-28T07:53:25;102292.28;;;3.88;100.00
57600;BME280;43426;43.594;24.334;2023-02-28T07:55:50;102293.47;;;3.99;100.00
57600;BME280;43426;43.594;24.334;2023-02-28T07:58:16;102296.09;;;3.84;100.00
57600;BME280;43426;43.594;24.334;2023-02-28T08:00:41;102303.66;;;3.92;100.00
57600;BME280;43426;43.594;24.334;2023-02-28T08:03:08;102301.09;;;3.90;100.00
57600;BME280;43426;43.594;24.334;2023-02-28T08:05:37;102299.69;;;3.99;100.00
57600;BME280;43426;43.594;24.334;2023-02-28T08:08:02;102303.16;;;3.85;100.00
57600;BME280;43426;43.594;24.334;2023-02-28T08:10:28;102299.03;;;3.80;100.00
57600;BME280;43426;43.594;24.334;2023-02-28T08:12:53;102304.63;;;3.75;100.00
57600;BME280;43426;43.594;24.334;2023-02-28T08:15:18;102304.69;;;3.89;100.00
57600;BME280;43426;43.594;24.334;2023-02-28T08:17:44;102299.25;;;3.91;100.00
57600;BME280;43426;43.594;24.334;2023-02-28T08:20:09;102290.25;;;4.08;100.00
57600;BME280;43426;43.594;24.334;2023-02-28T08:22:35;102297.31;;;4.09;100.00
57600;BME280;43426;43.594;24.334;2023-02-28T08:25:00;102305.16;;;4.12;100.00
57600;BME280;43426;43.594;24.334;2023-02-28T08:27:26;102303.16;;;4.16;100.00
57600;BME280;43426;43.594;24.334;2023-02-28T08:29:51;102303.94;;;4.18;100.00
57600;BME280;43426;43.594;24.334;2023-02-28T08:32:16;102295.81;;;4.19;100.00
57600;BME280;43426;43.594;24.334;2023-02-28T08:34:41;102294.03;;;4.20;100.00
57600;BME280;43426;43.594;24.334;2023-02-28T08:37:07;102295.28;;;4.29;100.00
57600;BME280;43426;43.594;24.334;2023-02-28T08:39:35;102304.66;;;4.36;100.00
57600;BME280;43426;43.594;24.334;2023-02-28T08:42:01;102291.84;;;4.26;100.00
57600;BME280;43426;43.594;24.334;2023-02-28T08:44:26;102306.25;;;4.24;100.00
57600;BME280;43426;43.594;24.334;2023-02-28T08:46:52;102299.47;;;4.18;100.00
57600;BME280;43426;43.594;24.334;2023-02-28T08:49:17;102303.63;;;4.08;100.00
57600;BME280;43426;43.594;24.334;2023-02-28T08:51:43;102308.84;;;4.25;100.00
57600;BME280;43426;43.594;24.334;2023-02-28T08:54:09;102306.03;;;4.13;100.00
57600;BME280;43426;43.594;24.334;2023-02-28T08:56:37;102315.75;;;4.14;100.00
57600;BME280;43426;43.594;24.334;2023-02-28T08:59:02;102307.81;;;4.12;100.00
57600;BME280;43426;43.594;24.334;2023-02-28T09:01:30;102314.09;;;4.11;100.00
57600;BME280;43426;43.594;24.334;2023-02-28T09:03:57;102306.50;;;4.19;100.00
57600;BME280;43426;43.594;24.334;2023-02-28T09:06:23;102311.84;;;4.19;100.00
57600;BME280;43426;43.594;24.334;2023-02-28T09:08:49;102321.47;;;4.07;100.00
57600;BME280;43426;43.594;24.334;2023-02-28T09:11:14;102320.16;;;3.99;100.00
57600;BME280;43426;43.594;24.334;2023-02-28T09:13:39;102319.09;;;4.17;100.00
57600;BME280;43426;43.594;24.334;2023-02-28T09:16:06;102323.44;;;4.34;100.00
57600;BME280;43426;43.594;24.334;2023-02-28T09:18:33;102319.72;;;4.37;100.00
57600;BME280;43426;43.594;24.334;2023-02-28T09:20:59;102319.53;;;4.40;100.00
57600;BME280;43426;43.594;24.334;2023-02-28T09:23:24;102325.06;;;4.37;100.00
57600;BME280;43426;43.594;24.334;2023-02-28T09:25:50;102321.19;;;4.42;100.00
57600;BME280;43426;43.594;24.334;2023-02-28T09:28:19;102332.16;;;4.38;100.00
57600;BME280;43426;43.594;24.334;2023-02-28T09:30:45;102333.94;;;4.37;100.00
57600;BME280;43426;43.594;24.334;2023-02-28T09:33:12;102340.91;;;4.25;100.00
57600;BME280;43426;43.594;24.334;2023-02-28T09:35:37;102340.00;;;4.25;100.00
57600;BME280;43426;43.594;24.334;2023-02-28T09:38:03;102340.00;;;4.25;100.00
57600;BME280;43426;43.594;24.334;2023-02-28T09:40:28;102336.81;;;4.34;100.00
57600;BME280;43426;43.594;24.334;2023-02-28T09:42:54;102330.09;;;4.27;100.00
57600;BME280;43426;43.594;24.334;2023-02-28T09:45:24;102336.38;;;4.56;100.00
57600;BME280;43426;43.594;24.334;2023-02-28T09:47:52;102338.31;;;4.24;100.00
57600;BME280;43426;43.594;24.334;2023-02-28T09:52:48;102334.19;;;4.49;100.00
57600;BME280;43426;43.594;24.334;2023-02-28T09:57:40;102333.19;;;4.35;100.00
57600;BME280;43426;43.594;24.334;2023-02-28T10:00:23;102338.66;;;4.48;100.00
57600;BME280;43426;43.594;24.334;2023-02-28T10:05:33;102327.97;;;4.48;100.00
57600;BME280;43426;43.594;24.334;2023-02-28T10:13:20;102317.09;;;4.51;100.00
57600;BME280;43426;43.594;24.334;2023-02-28T10:15:50;102314.59;;;4.34;100.00
57600;BME280;43426;43.594;24.334;2023-02-28T10:18:19;102315.34;;;4.36;100.00
57600;BME280;43426;43.594;24.334;2023-02-28T10:20:46;102313.94;;;4.45;100.00
57600;BME280;43426;43.594;24.334;2023-02-28T10:25:52;102301.72;;;4.40;100.00
57600;BME280;43426;43.594;24.334;2023-02-28T10:28:19;102310.59;;;4.41;100.00
57600;BME280;43426;43.594;24.334;2023-02-28T10:30:48;102307.72;;;4.44;100.00
57600;BME280;43426;43.594;24.334;2023-02-28T10:35:45;102300.00;;;4.54;100.00
57600;BME280;43426;43.594;24.334;2023-02-28T10:38:27;102296.31;;;4.71;100.00
57600;BME280;43426;43.594;24.334;2023-02-28T10:41:03;102302.97;;;4.49;100.00
57600;BME280;43426;43.594;24.334;2023-02-28T10:43:28;102311.94;;;4.48;100.00
57600;BME280;43426;43.594;24.334;2023-02-28T10:50:50;102319.59;;;4.54;100.00
57600;BME280;43426;43.594;24.334;2023-02-28T11:01:12;102302.81;;;4.67;100.00
57600;BME280;43426;43.594;24.334;2023-02-28T11:03:38;102284.84;;;4.69;100.00
57600;BME280;43426;43.594;24.334;2023-02-28T11:06:08;102274.53;;;4.63;100.00
57600;BME280;43426;43.594;24.334;2023-02-28T11:08:43;102274.06;;;4.70;100.00
57600;BME280;43426;43.594;24.334;2023-02-28T11:11:09;102266.81;;;4.72;100.00
57600;BME280;43426;43.594;24.334;2023-02-28T11:13:35;102271.31;;;4.86;100.00
57600;BME280;43426;43.594;24.334;2023-02-28T11:16:04;102272.16;;;4.87;100.00
57600;BME280;43426;43.594;24.334;2023-02-28T11:20:59;102268.81;;;4.83;100.00
57600;BME280;43426;43.594;24.334;2023-02-28T11:23:28;102261.16;;;4.77;100.00
57600;BME280;43426;43.594;24.334;2023-02-28T11:25:56;102260.31;;;4.76;100.00
57600;BME280;43426;43.594;24.334;2023-02-28T11:28:25;102256.59;;;4.79;100.00
57600;BME280;43426;43.594;24.334;2023-02-28T11:33:42;102261.25;;;4.90;100.00
57600;BME280;43426;43.594;24.334;2023-02-28T11:36:14;102250.09;;;4.69;100.00
57600;BME280;43426;43.594;24.334;2023-02-28T11:38:39;102255.53;;;4.82;100.00
57600;BME280;43426;43.594;24.334;2023-02-28T11:41:10;102262.50;;;4.70;100.00
57600;BME280;43426;43.594;24.334;2023-02-28T11:46:11;102264.78;;;4.62;100.00
57600;BME280;43426;43.594;24.334;2023-02-28T11:51:18;102264.13;;;4.72;100.00
57600;BME280;43426;43.594;24.334;2023-02-28T11:56:57;102259.63;;;4.87;100.00
57600;BME280;43426;43.594;24.334;2023-02-28T12:07:30;102263.06;;;4.60;100.00
57600;BME280;43426;43.594;24.334;2023-02-28T12:12:54;102259.28;;;4.79;100.00
57600;BME280;43426;43.594;24.334;2023-02-28T12:21:05;102264.97;;;4.73;100.00
57600;BME280;43426;43.594;24.334;2023-02-28T12:23:56;102261.06;;;4.64;100.00
57600;BME280;43426;43.594;24.334;2023-02-28T12:31:42;102274.84;;;4.72;100.00
57600;BME280;43426;43.594;24.334;2023-02-28T12:34:14;102279.88;;;4.77;100.00
57600;BME280;43426;43.594;24.334;2023-02-28T12:36:41;102269.00;;;4.80;100.00
57600;BME280;43426;43.594;24.334;2023-02-28T12:39:18;102267.47;;;4.76;100.00
57600;BME280;43426;43.594;24.334;2023-02-28T12:41:51;102273.38;;;4.81;100.00
57600;BME280;43426;43.594;24.334;2023-02-28T12:44:28;102270.34;;;4.73;100.00
57600;BME280;43426;43.594;24.334;2023-02-28T12:46:57;102263.56;;;4.67;100.00
57600;BME280;43426;43.594;24.334;2023-02-28T12:51:56;102259.75;;;4.71;100.00
57600;BME280;43426;43.594;24.334;2023-02-28T12:57:13;102259.63;;;4.73;100.00
57600;BME280;43426;43.594;24.334;2023-02-28T13:09:54;102261.19;;;4.63;100.00
57600;BME280;43426;43.594;24.334;2023-02-28T13:12:20;102253.72;;;4.68;100.00
57600;BME280;43426;43.594;24.334;2023-02-28T13:14:47;102251.22;;;4.65;100.00
57600;BME280;43426;43.594;24.334;2023-02-28T13:17:18;102252.19;;;4.92;100.00
57600;BME280;43426;43.594;24.334;2023-02-28T13:22:20;102250.28;;;4.80;100.00
57600;BME280;43426;43.594;24.334;2023-02-28T13:25:00;102243.31;;;4.92;100.00
57600;BME280;43426;43.594;24.334;2023-02-28T13:27:33;102239.09;;;4.88;100.00
57600;BME280;43426;43.594;24.334;2023-02-28T13:29:58;102242.34;;;4.93;100.00
57600;BME280;43426;43.594;24.334;2023-02-28T13:32:34;102235.03;;;5.09;100.00
57600;BME280;43426;43.594;24.334;2023-02-28T13:42:35;102240.25;;;4.84;100.00
57600;BME280;43426;43.594;24.334;2023-02-28T13:52:55;102218.75;;;4.56;100.00
57600;BME280;43426;43.594;24.334;2023-02-28T14:03:41;102221.63;;;4.68;100.00
57600;BME280;43426;43.594;24.334;2023-02-28T14:08:45;102234.31;;;4.50;100.00
57600;BME280;43426;43.594;24.334;2023-02-28T14:11:23;102236.44;;;4.45;100.00
57600;BME280;43426;43.594;24.334;2023-02-28T14:13:50;102243.00;;;4.68;100.00
57600;BME280;43426;43.594;24.334;2023-02-28T14:16:16;102237.28;;;4.59;100.00
57600;BME280;43426;43.594;24.334;2023-02-28T14:18:58;102237.28;;;4.59;100.00
57600;BME280;43426;43.594;24.334;2023-02-28T14:21:27;102232.81;;;4.60;100.00
57600;BME280;43426;43.594;24.334;2023-02-28T14:31:34;102216.88;;;4.58;100.00
57600;BME280;43426;43.594;24.334;2023-02-28T14:36:27;102230.41;;;4.55;100.00
57600;BME280;43426;43.594;24.334;2023-02-28T14:39:00;102237.38;;;4.58;100.00
57600;BME280;43426;43.594;24.334;2023-02-28T14:41:30;102233.47;;;4.64;100.00
57600;BME280;43426;43.594;24.334;2023-02-28T14:43:57;102230.69;;;4.51;100.00
57600;BME280;43426;43.594;24.334;2023-02-28T14:46:23;102243.00;;;4.68;100.00
57600;BME280;43426;43.594;24.334;2023-02-28T14:48:50;102236.63;;;4.56;100.00
57600;BME280;43426;43.594;24.334;2023-02-28T14:51:20;102235.19;;;4.50;100.00
57600;BME280;43426;43.594;24.334;2023-02-28T14:53:47;102238.91;;;4.48;100.00
57600;BME280;43426;43.594;24.334;2023-02-28T14:56:24;102238.72;;;4.51;100.00
57600;BME280;43426;43.594;24.334;2023-02-28T14:58:51;102240.34;;;4.68;100.00
57600;BME280;43426;43.594;24.334;2023-02-28T15:01:18;102243.38;;;4.47;100.00
57600;BME280;43426;43.594;24.334;2023-02-28T15:03:44;102242.63;;;4.45;100.00
57600;BME280;43426;43.594;24.334;2023-02-28T15:06:16;102254.25;;;4.30;100.00
57600;BME280;43426;43.594;24.334;2023-02-28T15:08:42;102247.38;;;4.40;100.00
57600;BME280;43426;43.594;24.334;2023-02-28T15:11:08;102253.47;;;4.28;100.00
57600;BME280;43426;43.594;24.334;2023-02-28T15:13:45;102260.94;;;4.37;100.00
57600;BME280;43426;43.594;24.334;2023-02-28T15:16:16;102248.16;;;4.42;100.00
57600;BME280;43426;43.594;24.334;2023-02-28T15:21:14;102241.28;;;4.38;100.00
57600;BME280;43426;43.594;24.334;2023-02-28T15:23:42;102242.34;;;4.35;100.00
57600;BME280;43426;43.594;24.334;2023-02-28T15:26:11;102248.16;;;4.42;100.00
57600;BME280;43426;43.594;24.334;2023-02-28T15:28:38;102244.16;;;4.49;100.00
57600;BME280;43426;43.594;24.334;2023-02-28T15:31:04;102240.91;;;4.44;100.00
57600;BME280;43426;43.594;24.334;2023-02-28T15:33:51;102244.53;;;4.43;100.00
57600;BME280;43426;43.594;24.334;2023-02-28T15:36:17;102246.44;;;4.41;100.00
57600;BME280;43426;43.594;24.334;2023-02-28T15:38:46;102244.06;;;4.36;100.00